Time;durP1;ratioP1;P1;durP2;ratioP2;P2;SDS_P1;SDS_P2;PMS_P1;PMS_P2;Temp;Humidity;BMP_temperature;BMP_pressure;BME280_temperature;BME280_humidity;BME280_pressure;Samples;Min_cycle;Max_cycle;Signal;HPM_P1;HPM_P2
2022/01/28 00:04:14;;;;;;;57.63;27.02;;;-0.10;99.90;;;;;;5059757;28;20032;-96
2022/01/28 00:06:46;;;;;;;57.90;26.27;;;-0.10;99.90;;;;;;5072393;28;20036;-96
2022/01/28 00:09:18;;;;;;;53.25;24.45;;;-0.10;99.90;;;;;;5073462;28;20028;-96
2022/01/28 00:11:46;;;;;;;54.38;25.88;;;-0.10;99.90;;;;;;5072556;28;20033;-96
2022/01/28 00:18:01;;;;;;;52.30;23.77;;;-0.10;99.90;;;;;;5073062;28;20048;-96
2022/01/28 00:38:09;;;;;;;53.08;23.05;;;0.00;99.90;;;;;;5030589;28;20109;-96
2022/01/28 00:40:37;;;;;;;49.75;23.08;;;0.00;99.90;;;;;;5013910;28;20045;-96
2022/01/28 00:43:38;;;;;;;51.17;23.83;;;0.00;99.90;;;;;;5013961;28;20038;-96
2022/01/28 00:46:44;;;;;;;45.15;23.00;;;0.10;99.90;;;;;;5018231;28;20053;-96
2022/01/28 00:49:18;;;;;;;56.10;24.00;;;0.00;99.90;;;;;;5011963;28;20038;-96
2022/01/28 00:51:55;;;;;;;47.22;22.23;;;0.00;99.90;;;;;;5010970;28;20034;-96
2022/01/28 00:54:45;;;;;;;44.88;21.00;;;0.00;99.90;;;;;;4965335;28;20114;-96
2022/01/28 00:57:24;;;;;;;48.83;22.27;;;0.10;99.90;;;;;;4999243;28;20109;-96
2022/01/28 00:59:53;;;;;;;53.67;24.70;;;0.10;99.90;;;;;;5024207;28;20121;-96
2022/01/28 01:02:22;;;;;;;56.25;26.38;;;0.10;99.90;;;;;;5032121;28;20072;-96
2022/01/28 01:04:51;;;;;;;50.28;24.55;;;0.10;99.90;;;;;;5028870;28;20029;-96
2022/01/28 01:07:17;;;;;;;48.45;22.83;;;0.10;99.90;;;;;;5037340;28;20089;-96
2022/01/28 01:09:49;;;;;;;58.28;28.98;;;0.10;99.90;;;;;;5176988;22;20137;-96
2022/01/28 01:12:38;;;;;;;53.13;25.27;;;0.10;99.90;;;;;;5017308;28;20038;-96
2022/01/28 01:15:05;;;;;;;51.53;25.55;;;0.10;99.90;;;;;;5021040;28;20037;-96
2022/01/28 01:17:52;;;;;;;48.10;23.52;;;0.10;99.90;;;;;;5035491;28;20029;-96
2022/01/28 01:23:35;;;;;;;52.38;23.52;;;0.20;99.90;;;;;;5046696;28;20048;-96
2022/01/28 01:26:09;;;;;;;56.33;24.67;;;0.10;99.90;;;;;;5032904;28;20038;-96
2022/01/28 01:28:38;;;;;;;59.10;24.60;;;0.10;99.90;;;;;;5048945;28;20041;-96
2022/01/28 01:31:09;;;;;;;53.42;23.77;;;0.10;99.90;;;;;;5036643;28;20037;-96
2022/01/28 01:33:41;;;;;;;54.80;25.58;;;0.10;99.90;;;;;;5031448;28;20021;-96
2022/01/28 01:37:02;;;;;;;53.08;23.55;;;0.10;99.90;;;;;;5035655;28;20021;-96
2022/01/28 01:39:33;;;;;;;47.35;22.65;;;0.20;99.90;;;;;;5048616;28;20063;-96
2022/01/28 01:42:28;;;;;;;51.08;23.08;;;0.10;99.90;;;;;;5035339;28;20001;-96
2022/01/28 01:57:24;;;;;;;;;;;0.10;99.90;;;;;;4996519;28;20069;-96
2022/01/28 02:00:17;;;;;;;48.65;22.98;;;0.10;99.90;;;;;;4994034;28;19918;-96
2022/01/28 02:02:52;;;;;;;51.50;23.45;;;0.10;99.90;;;;;;5030974;28;20041;-96
2022/01/28 02:05:21;;;;;;;57.00;25.48;;;0.10;99.90;;;;;;5036842;28;20025;-96
2022/01/28 02:07:50;;;;;;;62.85;27.92;;;0.10;99.90;;;;;;5051860;28;20022;-96
2022/01/28 02:10:38;;;;;;;50.03;24.92;;;0.10;99.90;;;;;;5047694;28;20049;-96
2022/01/28 02:13:06;;;;;;;61.72;27.83;;;0.10;99.90;;;;;;5032517;28;20038;-96
2022/01/28 02:16:02;;;;;;;52.90;24.55;;;0.10;99.90;;;;;;5010332;28;20064;-96
2022/01/28 02:25:26;;;;;;;51.42;22.88;;;0.10;99.90;;;;;;5024919;28;20082;-96
2022/01/28 02:27:59;;;;;;;54.80;24.45;;;0.10;99.90;;;;;;5015910;28;20029;-96
2022/01/28 02:30:40;;;;;;;54.17;25.90;;;0.10;99.90;;;;;;5015263;28;20029;-96
2022/01/28 02:33:26;;;;;;;58.20;25.98;;;0.10;99.90;;;;;;5017501;28;20038;-96
2022/01/28 02:36:06;;;;;;;55.80;24.20;;;0.10;99.90;;;;;;5013136;28;20446;-96
2022/01/28 02:39:05;;;;;;;;;;;;;;;;;;;;;
2022/01/28 02:45:25;;;;;;;59.83;24.38;;;0.10;99.90;;;;;;5017581;28;20041;-96
2022/01/28 02:48:13;;;;;;;;;;;;;;;;;;;;;
2022/01/28 03:03:22;;;;;;;63.00;24.48;;;0.10;99.90;;;;;;4974700;29;20058;-96
2022/01/28 03:13:29;;;;;;;87.18;33.53;;;0.10;99.90;;;;;;4921674;29;20056;-96
2022/01/28 03:26:44;;;;;;;76.38;33.15;;;0.10;99.90;;;;;;5157798;23;20736;31
2022/01/28 03:32:55;;;;;;;91.28;42.55;;;0.10;99.90;;;;;;4937118;28;20102;-96
2022/01/28 03:45:45;;;;;;;58.10;26.35;;;0.10;99.90;;;;;;4915113;28;20104;-96
2022/01/28 03:48:10;;;;;;;62.85;26.80;;;0.10;99.90;;;;;;4909349;29;20028;-96
2022/01/28 03:50:36;;;;;;;55.65;26.17;;;0.10;99.90;;;;;;4903924;29;20031;-95
2022/01/28 03:53:16;;;;;;;65.80;28.73;;;0.10;99.90;;;;;;4912806;29;20032;-96
2022/01/28 03:56:02;;;;;;;62.72;27.35;;;0.10;99.90;;;;;;4908095;29;20032;-96
2022/01/28 03:58:57;;;;;;;62.85;28.20;;;0.10;99.90;;;;;;4908077;29;20039;-96
2022/01/28 04:01:31;;;;;;;73.80;30.42;;;0.10;99.90;;;;;;4899532;29;20032;-96
2022/01/28 04:04:48;;;;;;;70.35;30.42;;;0.10;99.90;;;;;;4909836;29;20028;-96
2022/01/28 04:12:57;;;;;;;61.15;27.55;;;0.20;99.90;;;;;;4928877;29;20031;-96
2022/01/28 04:15:48;;;;;;;63.83;28.73;;;0.20;99.90;;;;;;4919786;29;20024;-96
2022/01/28 04:19:00;;;;;;;;;;;;;;;;;;;;;
2022/01/28 04:25:04;;;;;;;82.70;32.83;;;0.20;99.90;;;;;;4862064;29;20040;-96
2022/01/28 04:27:45;;;;;;;74.97;35.58;;;0.20;99.90;;;;;;4878385;29;20053;-96
2022/01/28 04:30:12;;;;;;;66.72;31.33;;;0.20;99.90;;;;;;4879683;29;20029;-96
2022/01/28 04:32:58;;;;;;;;;;;;;;;;;;;;;
2022/01/28 04:50:33;;;;;;;58.08;27.15;;;0.20;99.90;;;;;;4967417;29;20031;-96
2022/01/28 04:53:28;;;;;;;60.45;29.45;;;0.10;99.90;;;;;;4953272;29;20047;-94
2022/01/28 14:36:21;;;;;;;56.10;25.63;;;1.30;99.90;;;;;;5094333;27;20405;-96
2022/01/28 14:38:49;;;;;;;54.47;26.50;;;1.30;99.90;;;;;;5091999;28;20036;-95
2022/01/28 14:41:44;;;;;;;53.28;26.08;;;1.30;99.90;;;;;;5094490;28;20119;-96
2022/01/28 14:44:27;;;;;;;50.38;24.80;;;1.30;99.90;;;;;;5096894;28;20517;-96
2022/01/28 14:47:09;;;;;;;55.35;25.73;;;1.30;99.90;;;;;;5095284;28;20024;-96
2022/01/28 14:50:04;;;;;;;54.03;27.13;;;1.40;99.90;;;;;;5094640;28;20470;-96
2022/01/28 14:52:31;;;;;;;61.08;29.92;;;1.30;99.90;;;;;;5049922;28;20037;-95
2022/01/28 15:12:54;;;;;;;50.05;25.33;;;1.40;99.90;;;;;;4985387;28;20123;-96
2022/01/28 15:15:21;;;;;;;44.30;23.65;;;1.50;99.90;;;;;;4983459;28;20027;-96
2022/01/28 15:17:46;;;;;;;44.75;23.77;;;1.50;99.90;;;;;;5054631;23;20104;-96
2022/01/28 15:24:21;;;;;;;41.28;23.30;;;1.50;99.90;;;;;;5000709;28;20065;-96
2022/01/28 15:26:47;;;;;;;45.60;25.05;;;1.50;99.90;;;;;;4990259;28;20053;-94
2022/01/28 15:29:34;;;;;;;43.10;22.75;;;1.50;99.90;;;;;;4990415;28;20034;-96
2022/01/28 15:35:07;;;;;;;44.13;23.17;;;1.50;99.90;;;;;;4991573;28;20037;-95
2022/01/28 15:37:33;;;;;;;42.97;22.50;;;1.60;99.90;;;;;;4990705;28;20042;-96
2022/01/28 15:39:59;;;;;;;46.15;23.17;;;1.60;99.90;;;;;;4990442;28;20027;-95
2022/01/28 15:42:24;;;;;;;44.47;22.60;;;1.50;99.90;;;;;;4990444;28;20023;-94
2022/01/28 15:44:51;;;;;;;44.83;23.70;;;1.60;99.90;;;;;;4990746;28;20026;-94
2022/01/28 15:47:18;;;;;;;45.45;21.80;;;1.60;99.90;;;;;;4979154;28;20027;-95
2022/01/28 15:49:44;;;;;;;46.15;23.02;;;1.60;99.90;;;;;;4977113;28;20398;-94
2022/01/28 15:52:13;;;;;;;40.83;21.85;;;1.60;99.90;;;;;;4977841;28;20027;-96
2022/01/28 15:54:39;;;;;;;42.53;21.70;;;1.60;99.90;;;;;;4977663;28;20023;-96
2022/01/28 15:57:05;;;;;;;39.85;21.15;;;1.60;99.90;;;;;;4977017;28;20058;-95
2022/01/28 15:59:31;;;;;;;41.22;21.45;;;1.60;99.90;;;;;;4977821;28;20085;-94
2022/01/28 16:01:57;;;;;;;33.22;18.92;;;1.60;99.90;;;;;;4976962;28;20022;-95
2022/01/28 16:04:23;;;;;;;35.20;19.75;;;1.60;99.90;;;;;;4977025;28;20030;-95
2022/01/28 16:06:50;;;;;;;37.72;20.42;;;1.60;99.90;;;;;;4977536;28;20378;-94
2022/01/28 16:09:16;;;;;;;38.13;17.83;;;1.60;99.90;;;;;;4977201;28;20027;-96
2022/01/28 16:11:53;;;;;;;34.47;18.98;;;1.60;99.90;;;;;;4976999;28;20026;-96
2022/01/28 16:14:45;;;;;;;35.50;17.95;;;1.60;99.90;;;;;;4977031;28;20054;-95
2022/01/28 16:17:37;;;;;;;41.42;23.10;;;1.50;99.90;;;;;;4979521;28;20062;-93
2022/01/28 16:20:05;;;;;;;41.47;20.98;;;1.60;99.90;;;;;;4978363;28;20034;-92
2022/01/28 16:22:33;;;;;;;43.45;22.52;;;1.50;99.90;;;;;;4991097;28;20401;-93
2022/01/28 16:24:58;;;;;;;46.67;21.83;;;1.50;99.90;;;;;;4985160;28;20098;-93
2022/01/28 16:27:27;;;;;;;43.03;21.58;;;1.50;99.90;;;;;;4978089;28;20482;-93
2022/01/28 16:29:53;;;;;;;42.55;22.02;;;1.50;99.90;;;;;;4977295;28;20046;-93
2022/01/28 16:32:21;;;;;;;40.70;20.60;;;1.50;99.90;;;;;;4977048;28;20030;-94
2022/01/28 16:34:49;;;;;;;42.15;22.65;;;1.50;99.90;;;;;;4979771;28;20031;-94
2022/01/28 16:37:18;;;;;;;41.13;21.42;;;1.50;99.90;;;;;;4982462;28;20023;-96
2022/01/28 16:39:47;;;;;;;36.83;20.08;;;1.50;99.90;;;;;;4979364;28;20034;-96
2022/01/28 16:43:02;;;;;;;40.83;20.33;;;1.50;99.90;;;;;;4988099;28;20027;-96
2022/01/28 16:46:12;;;;;;;38.38;19.13;;;1.50;99.90;;;;;;4966901;28;20043;-96
2022/01/28 16:48:37;;;;;;;42.33;20.10;;;1.50;99.90;;;;;;4926826;29;20079;-96
2022/01/28 16:51:05;;;;;;;35.60;19.92;;;1.50;99.90;;;;;;4979283;28;20057;-96
2022/01/28 16:53:33;;;;;;;33.05;17.83;;;1.50;99.90;;;;;;4984498;28;20027;-96
2022/01/28 16:55:58;;;;;;;38.92;18.23;;;1.40;99.90;;;;;;4981177;28;20050;-96
2022/01/28 16:58:24;;;;;;;31.50;16.95;;;1.40;99.90;;;;;;4980163;28;20038;-96
2022/01/28 17:00:53;;;;;;;29.45;15.82;;;1.40;99.90;;;;;;4977541;28;20023;-96
2022/01/28 17:03:19;;;;;;;36.40;17.92;;;1.50;99.90;;;;;;4977349;28;20027;-96
2022/01/28 17:05:45;;;;;;;34.88;18.65;;;1.50;99.90;;;;;;4960375;28;20501;-96
2022/01/28 17:08:11;;;;;;;34.22;16.63;;;1.40;99.90;;;;;;4976467;28;20062;-96
2022/01/28 17:10:47;;;;;;;34.55;16.75;;;1.50;99.90;;;;;;4976934;28;20034;-96
2022/01/28 17:13:14;;;;;;;35.75;18.48;;;1.50;99.90;;;;;;4977776;28;20093;-95
2022/01/28 17:15:42;;;;;;;32.53;18.60;;;1.50;99.90;;;;;;4977008;28;20027;-96
2022/01/28 17:18:09;;;;;;;37.42;18.85;;;1.50;99.90;;;;;;4976730;28;20022;-96
2022/01/28 17:20:36;;;;;;;36.88;19.38;;;1.50;99.90;;;;;;4976356;28;20106;-96
2022/01/28 17:23:02;;;;;;;39.83;17.88;;;1.60;99.90;;;;;;4975903;28;20034;-96
2022/01/28 17:25:28;;;;;;;30.83;16.83;;;1.60;99.90;;;;;;4976160;28;20508;-96
2022/01/28 17:27:54;;;;;;;34.90;18.33;;;1.60;99.90;;;;;;4979935;28;20038;-96
2022/01/28 17:30:21;;;;;;;31.35;17.35;;;1.60;99.90;;;;;;4980568;28;20037;-96
2022/01/28 17:32:49;;;;;;;33.40;16.50;;;1.60;99.90;;;;;;4979662;28;20022;-95
2022/01/28 17:35:17;;;;;;;28.90;16.58;;;1.60;99.90;;;;;;4976137;28;20023;-96
2022/01/28 17:37:43;;;;;;;29.20;16.33;;;1.60;99.90;;;;;;4976107;28;20417;-96
2022/01/28 17:40:10;;;;;;;27.58;15.52;;;1.60;99.90;;;;;;4976006;28;20462;-96
2022/01/28 17:42:37;;;;;;;26.25;15.05;;;1.60;99.90;;;;;;4975967;28;20031;-96
2022/01/28 17:45:05;;;;;;;27.30;14.57;;;1.60;99.90;;;;;;4978772;28;20027;-95
2022/01/28 17:47:31;;;;;;;27.85;14.77;;;1.60;99.90;;;;;;4994444;28;20026;-94
2022/01/28 17:49:57;;;;;;;28.35;15.35;;;1.70;99.90;;;;;;4994599;28;20362;-94
2022/01/28 17:52:23;;;;;;;27.50;14.85;;;1.70;99.90;;;;;;4994504;28;20030;-93
2022/01/28 17:54:50;;;;;;;32.83;14.52;;;1.70;99.90;;;;;;4994354;28;20037;-93
2022/01/28 17:57:16;;;;;;;24.35;14.15;;;1.70;99.90;;;;;;4994367;28;20041;-94
2022/01/28 17:59:43;;;;;;;27.33;14.55;;;1.70;99.90;;;;;;4994293;28;20508;-93
2022/01/28 18:02:13;;;;;;;24.40;12.65;;;1.70;99.90;;;;;;4994135;28;20026;-93
2022/01/28 18:04:39;;;;;;;22.50;12.90;;;1.80;99.90;;;;;;4994320;28;20050;-94
2022/01/28 18:07:06;;;;;;;22.27;13.18;;;1.80;99.90;;;;;;4994253;28;20116;-94
2022/01/28 18:09:31;;;;;;;24.55;12.80;;;1.80;99.90;;;;;;4994346;28;20473;-94
2022/01/28 18:11:57;;;;;;;22.00;13.10;;;1.80;99.90;;;;;;4994253;28;20034;-94
2022/01/28 18:14:23;;;;;;;17.73;11.70;;;1.80;99.90;;;;;;4993973;28;20027;-94
2022/01/28 18:16:49;;;;;;;31.08;14.48;;;1.80;99.90;;;;;;4993758;28;20049;-94
2022/01/28 18:19:16;;;;;;;20.05;11.85;;;1.80;99.90;;;;;;4994125;28;20049;-93
2022/01/28 18:21:42;;;;;;;23.13;13.00;;;1.80;99.90;;;;;;4994208;28;20041;-94
2022/01/28 18:24:08;;;;;;;24.00;13.23;;;1.80;99.90;;;;;;4993945;28;20113;-93
2022/01/28 18:26:35;;;;;;;25.42;14.07;;;1.70;99.90;;;;;;4993946;28;20132;-94
2022/01/28 18:29:05;;;;;;;42.60;21.98;;;1.70;99.90;;;;;;4993914;28;20480;-94
2022/01/28 18:31:31;;;;;;;27.95;14.65;;;1.70;99.90;;;;;;4994137;28;20074;-93
2022/01/28 18:33:57;;;;;;;26.48;14.82;;;1.70;99.90;;;;;;4994068;28;20077;-93
2022/01/28 18:36:23;;;;;;;29.25;14.93;;;1.70;99.90;;;;;;4993828;28;20026;-93
2022/01/28 18:38:50;;;;;;;25.00;14.57;;;1.70;99.90;;;;;;4993875;28;20118;-92
2022/01/28 18:42:02;;;;;;;25.48;14.27;;;1.70;99.90;;;;;;4984097;28;20031;-93
2022/01/28 18:44:29;;;;;;;25.30;14.40;;;1.70;99.90;;;;;;4974026;28;20032;-93
2022/01/28 18:47:07;;;;;;;27.77;15.13;;;1.70;99.90;;;;;;4973996;28;20031;-93
2022/01/28 18:49:34;;;;;;;23.33;12.77;;;1.60;99.90;;;;;;4975186;28;20038;-93
2022/01/28 18:52:06;;;;;;;30.27;15.85;;;1.70;99.90;;;;;;4974388;28;20023;-94
2022/01/28 18:54:32;;;;;;;40.30;19.05;;;1.70;99.90;;;;;;4976932;28;20035;-93
2022/01/28 18:56:58;;;;;;;31.00;16.42;;;1.60;99.90;;;;;;4987755;28;20113;-94
2022/01/28 18:59:24;;;;;;;33.05;16.27;;;1.60;99.90;;;;;;4986234;28;20019;-93
2022/01/28 19:07:47;;;;;;;25.60;14.65;;;1.60;99.90;;;;;;5109022;23;20045;-96
2022/01/28 19:10:17;;;;;;;29.85;15.23;;;1.50;99.90;;;;;;4967473;28;20031;-96
2022/01/28 19:12:49;;;;;;;52.35;23.75;;;1.60;99.90;;;;;;4960070;28;20037;-96
2022/01/28 19:15:16;;;;;;;30.05;16.08;;;1.50;99.90;;;;;;4962517;28;20035;-96
2022/01/28 19:17:42;;;;;;;35.45;18.98;;;1.50;99.90;;;;;;4960630;28;20027;-96
2022/01/28 19:20:18;;;;;;;28.45;16.10;;;1.40;99.90;;;;;;4969998;28;20023;-96
2022/01/28 19:22:44;;;;;;;28.23;14.65;;;1.40;99.90;;;;;;4978728;28;20065;-96
2022/01/28 19:25:12;;;;;;;36.03;16.77;;;1.40;99.90;;;;;;4975519;28;20027;-96
2022/01/28 19:27:45;;;;;;;31.50;15.70;;;1.40;99.90;;;;;;4981860;28;20067;-96
2022/01/28 19:40:54;;;;;;;30.10;15.93;;;1.50;99.90;;;;;;5199723;23;20046;-96
2022/01/28 19:43:23;;;;;;;25.35;13.85;;;1.40;99.90;;;;;;5005268;28;20125;-96
2022/01/28 19:45:54;;;;;;;24.15;14.27;;;1.40;99.90;;;;;;4992947;28;20054;-96
2022/01/28 19:48:20;;;;;;;;;;;1.40;99.90;;;;;;4993553;28;20050;-96
2022/01/28 19:50:50;;;;;;;26.98;14.63;;;1.40;99.90;;;;;;4981235;28;20352;-96
2022/01/28 19:56:04;;;;;;;47.42;21.50;;;1.40;99.90;;;;;;5025872;23;20047;-96
2022/01/28 19:58:30;;;;;;;47.00;23.33;;;1.40;99.90;;;;;;4988769;28;20030;-95
2022/01/28 20:00:57;;;;;;;56.90;25.13;;;1.40;99.90;;;;;;4987507;28;20480;-96
2022/01/28 20:03:23;;;;;;;34.75;18.98;;;1.40;99.90;;;;;;4987683;28;20018;-96
2022/01/28 20:05:49;;;;;;;35.97;18.85;;;1.40;99.90;;;;;;4988033;28;20402;-96
2022/01/28 20:08:15;;;;;;;29.83;16.05;;;1.50;99.90;;;;;;4992764;28;20045;-96
2022/01/28 20:10:43;;;;;;;27.02;15.43;;;1.40;99.90;;;;;;4986900;28;20031;-96
2022/01/28 20:13:15;;;;;;;26.23;14.55;;;1.50;99.90;;;;;;4979992;28;20102;-96
2022/01/28 20:15:42;;;;;;;23.83;15.27;;;1.40;99.90;;;;;;4999500;28;20031;-96
2022/01/28 20:18:15;;;;;;;22.15;13.82;;;1.50;99.90;;;;;;4993933;28;20010;-96
2022/01/28 20:21:31;;;;;;;32.47;17.08;;;1.50;99.90;;;;;;5004438;28;20034;-96
2022/01/28 21:40:01;;;;;;;18.10;10.10;;;1.70;99.90;;;;;;6096958;23;21000;-96
2022/01/28 21:45:03;;;;;;;16.45;9.75;;;1.60;99.90;;;;;;5282873;23;20061;-94
2022/01/28 21:47:29;;;;;;;19.80;11.57;;;1.70;99.90;;;;;;4982088;28;20027;-96
2022/01/28 21:49:55;;;;;;;16.60;9.95;;;1.60;99.90;;;;;;4979247;28;20033;-96
2022/01/28 21:53:00;;;;;;;15.30;9.70;;;1.70;99.90;;;;;;4995942;28;20034;-96
2022/01/28 21:55:35;;;;;;;17.90;11.13;;;1.70;99.90;;;;;;4990778;28;20053;-96
2022/01/28 21:58:23;;;;;;;18.60;10.98;;;1.70;99.90;;;;;;5010472;28;20057;-96
2022/01/28 22:00:54;;;;;;;17.30;10.20;;;1.70;99.90;;;;;;5026097;23;20069;-96
2022/01/28 22:05:58;;;;;;;18.77;10.60;;;1.70;99.90;;;;;;5065073;23;20043;-96
2022/01/28 22:08:27;;;;;;;18.02;11.70;;;1.70;99.90;;;;;;4993662;28;20033;-96
2022/01/28 22:11:22;;;;;;;14.45;9.77;;;1.70;99.90;;;;;;5012262;28;20037;-96
2022/01/28 22:17:21;;;;;;;19.73;11.25;;;1.70;99.90;;;;;;5005522;28;20050;-96
2022/01/28 22:19:48;;;;;;;15.40;10.38;;;1.60;99.90;;;;;;5056615;23;20054;-96
2022/01/28 22:22:20;;;;;;;17.15;10.20;;;1.70;99.90;;;;;;4966819;28;20091;-96
2022/01/28 22:24:52;;;;;;;15.95;10.30;;;1.70;99.90;;;;;;4972955;29;20098;-96
2022/01/28 22:27:33;;;;;;;16.83;10.35;;;1.70;99.90;;;;;;5716145;23;20042;31
2022/01/28 22:29:59;;;;;;;15.48;10.23;;;1.70;99.90;;;;;;4937934;29;20075;-96
2022/01/28 22:32:27;;;;;;;17.42;10.23;;;1.70;99.90;;;;;;4999461;23;20087;-96
2022/01/28 22:42:41;;;;;;;15.00;10.15;;;1.70;99.90;;;;;;6091082;23;20624;-94
2022/01/28 22:47:52;;;;;;;15.05;9.63;;;1.60;99.90;;;;;;5983987;23;20036;31
2022/01/28 23:02:55;;;;;;;16.55;9.23;;;1.60;99.90;;;;;;5012382;28;20114;-96
2022/01/28 23:05:29;;;;;;;15.45;9.52;;;1.60;99.90;;;;;;4995321;28;20030;-96
2022/01/28 23:16:34;;;;;;;10.73;7.28;;;1.60;99.90;;;;;;5143954;23;20061;-96
2022/01/28 23:18:59;;;;;;;11.88;7.80;;;1.60;99.90;;;;;;5065321;23;20505;-96
2022/01/28 23:21:25;;;;;;;10.65;7.60;;;1.60;99.90;;;;;;4983115;28;20507;-96
2022/01/28 23:23:53;;;;;;;11.40;8.00;;;1.60;99.90;;;;;;4980631;28;20031;-96
2022/01/28 23:26:20;;;;;;;12.48;7.53;;;1.50;99.90;;;;;;4978998;28;20029;-96
2022/01/28 23:28:46;;;;;;;11.95;7.30;;;1.60;99.90;;;;;;4981096;28;20385;-94
2022/01/28 23:31:13;;;;;;;12.73;7.82;;;1.50;99.90;;;;;;4977953;28;20081;-96
2022/01/28 23:33:39;;;;;;;12.00;7.53;;;1.50;99.90;;;;;;4978996;28;20035;-96
2022/01/28 23:36:05;;;;;;;13.40;8.52;;;1.50;99.90;;;;;;4978477;28;20081;-96
2022/01/28 23:38:40;;;;;;;13.98;8.27;;;1.50;99.90;;;;;;4981288;28;20082;-96
2022/01/28 23:41:09;;;;;;;11.75;7.65;;;1.50;99.90;;;;;;4980087;28;20130;-96
2022/01/28 23:43:36;;;;;;;14.50;8.85;;;1.50;99.90;;;;;;4979785;28;20023;-95
2022/01/28 23:46:02;;;;;;;14.80;8.77;;;1.50;99.90;;;;;;4977852;28;20054;-96
2022/01/28 23:48:27;;;;;;;13.68;8.10;;;1.50;99.90;;;;;;4978597;28;20389;-96
2022/01/28 23:50:54;;;;;;;10.55;7.38;;;1.50;99.90;;;;;;4980319;28;20027;-96
2022/01/28 23:53:20;;;;;;;13.63;8.50;;;1.40;99.90;;;;;;4977810;28;20604;-94
2022/01/28 23:55:46;;;;;;;12.93;8.50;;;1.40;99.90;;;;;;4977871;28;20109;-96
2022/01/28 23:58:12;;;;;;;12.77;8.13;;;1.50;99.90;;;;;;4979783;28;20394;-96
